createdAt,value
2018-09-30T00:02:34.681Z,83.50
2018-09-30T00:05:03.121Z,83.70
2018-09-30T00:07:31.608Z,83.70
2018-09-30T00:12:28.223Z,83.70
2018-09-30T00:14:56.684Z,83.90
2018-09-30T00:17:25.135Z,84.10
2018-09-30T00:19:53.534Z,84.30
2018-09-30T00:22:21.997Z,84.30
2018-09-30T00:24:55.662Z,84.50
2018-09-30T00:27:24.104Z,84.40
2018-09-30T00:29:52.525Z,84.40
2018-09-30T00:32:20.963Z,84.50
2018-09-30T00:34:49.407Z,84.50
2018-09-30T00:39:45.997Z,84.60
2018-09-30T00:42:14.559Z,84.60
2018-09-30T00:44:43.021Z,84.50
2018-09-30T00:47:11.524Z,84.70
2018-09-30T00:49:40.105Z,84.70
2018-09-30T00:52:08.604Z,84.60
2018-09-30T00:54:37.089Z,84.50
2018-09-30T00:57:05.612Z,84.40
2018-09-30T00:59:34.132Z,84.60
2018-09-30T01:02:02.649Z,84.60
2018-09-30T01:04:31.080Z,84.40
2018-09-30T01:09:27.723Z,84.60
2018-09-30T01:14:24.448Z,84.50
2018-09-30T01:16:52.850Z,84.40
2018-09-30T01:19:21.285Z,84.50
2018-09-30T01:21:49.736Z,84.30
2018-09-30T01:24:18.170Z,84.40
2018-09-30T01:26:46.611Z,84.40
2018-09-30T01:29:15.077Z,84.70
2018-09-30T01:31:43.524Z,84.80
2018-09-30T01:34:11.975Z,84.50
2018-09-30T01:36:40.381Z,84.50
2018-09-30T01:39:08.866Z,84.80
2018-09-30T01:41:37.332Z,84.80
2018-09-30T01:44:05.828Z,85.10
2018-09-30T01:49:02.424Z,84.90
2018-09-30T01:51:30.869Z,84.90
2018-09-30T01:53:59.335Z,84.90
2018-09-30T01:58:55.913Z,85.10
2018-09-30T02:01:24.327Z,85.30
2018-09-30T02:03:52.762Z,85.40
2018-09-30T02:06:21.241Z,85.40
2018-09-30T02:08:49.664Z,85.40
2018-09-30T02:11:18.173Z,85.60
2018-09-30T02:16:14.772Z,85.50
2018-09-30T02:18:43.312Z,85.60
2018-09-30T02:21:11.729Z,85.40
2018-09-30T02:23:40.169Z,85.40
2018-09-30T02:28:36.857Z,85.40
2018-09-30T02:31:05.309Z,85.60
2018-09-30T02:33:33.889Z,85.70
2018-09-30T02:36:02.348Z,85.90
2018-09-30T02:38:30.893Z,86.10
2018-09-30T02:40:59.300Z,85.80
2018-09-30T02:43:27.758Z,85.80
2018-09-30T02:45:56.173Z,85.70
2018-09-30T02:48:24.696Z,85.80
2018-09-30T02:50:53.124Z,85.70
2018-09-30T02:53:21.554Z,85.50
2018-09-30T02:55:50.018Z,85.40
2018-09-30T02:58:18.513Z,85.30
2018-09-30T03:00:47.057Z,85.50
2018-09-30T03:03:15.509Z,85.60
2018-09-30T03:05:43.948Z,85.60
2018-09-30T03:08:17.729Z,85.80
2018-09-30T03:10:46.172Z,85.60
2018-09-30T03:13:14.612Z,85.70
2018-09-30T03:15:43.097Z,85.80
2018-09-30T03:18:11.512Z,85.80
2018-09-30T03:23:08.101Z,86.20
2018-09-30T03:28:04.653Z,86.30
2018-09-30T03:33:01.236Z,86.60
2018-09-30T03:35:29.656Z,86.30
2018-09-30T03:37:58.270Z,86.20
2018-09-30T03:40:26.725Z,86.30
2018-09-30T03:42:55.189Z,86.20
2018-09-30T03:45:23.638Z,86.10
2018-09-30T03:47:52.258Z,86.10
2018-09-30T03:50:20.724Z,86.20
2018-09-30T03:52:49.161Z,86.30
2018-09-30T03:55:17.616Z,86.20
2018-09-30T03:57:46.095Z,86.10
2018-09-30T04:00:14.536Z,86.10
2018-09-30T04:02:42.974Z,85.90
2018-09-30T04:05:11.446Z,85.90
2018-09-30T04:07:39.983Z,86.00
2018-09-30T04:10:08.485Z,85.80
2018-09-30T04:12:37.197Z,85.90
2018-09-30T04:17:34.192Z,86.00
2018-09-30T04:20:02.654Z,86.10
2018-09-30T04:22:31.137Z,86.30
2018-09-30T04:24:59.584Z,86.20
2018-09-30T04:27:28.090Z,86.30
2018-09-30T04:29:56.512Z,86.20
2018-09-30T04:32:25.013Z,86.10
2018-09-30T04:34:53.448Z,85.80
2018-09-30T04:37:22.005Z,85.70
2018-09-30T04:39:50.420Z,85.90
2018-09-30T04:42:18.925Z,85.80
2018-09-30T04:44:47.344Z,85.90
2018-09-30T04:47:15.817Z,86.20
2018-09-30T04:49:44.261Z,86.10
2018-09-30T04:52:12.727Z,86.30
2018-09-30T04:54:41.322Z,86.10
2018-09-30T04:57:09.786Z,86.20
2018-09-30T04:59:38.224Z,86.20
2018-09-30T05:02:06.772Z,86.50
2018-09-30T05:04:35.289Z,86.60
2018-09-30T05:07:04.041Z,86.80
2018-09-30T05:09:32.472Z,86.60
2018-09-30T05:12:00.969Z,86.60
2018-09-30T05:14:29.430Z,86.60
2018-09-30T05:16:58.266Z,86.60
2018-09-30T05:19:26.952Z,86.70
2018-09-30T05:21:55.631Z,86.90
2018-09-30T05:24:24.077Z,86.80
2018-09-30T05:26:52.527Z,86.80
2018-09-30T05:29:21.124Z,86.90
2018-09-30T05:31:49.736Z,87.00
2018-09-30T05:34:18.164Z,86.90
2018-09-30T05:36:46.617Z,87.00
2018-09-30T05:39:15.061Z,86.80
2018-09-30T05:41:43.500Z,86.90
2018-09-30T05:44:11.949Z,86.80
2018-09-30T05:49:09.208Z,86.80
2018-09-30T05:51:37.749Z,87.00
2018-09-30T05:54:06.439Z,87.10
2018-09-30T05:56:35.075Z,87.30
2018-09-30T05:59:03.519Z,87.00
2018-09-30T06:01:31.988Z,87.30
2018-09-30T06:04:00.521Z,86.90
2018-09-30T06:06:28.896Z,87.40
2018-09-30T06:08:57.367Z,86.70
2018-09-30T06:11:25.845Z,87.10
2018-09-30T06:18:50.637Z,87.40
2018-09-30T06:21:19.091Z,87.70
2018-09-30T06:23:47.592Z,87.00
2018-09-30T06:26:16.001Z,84.80
2018-09-30T06:28:44.444Z,80.00
2018-09-30T06:31:12.877Z,78.30
2018-09-30T06:33:41.328Z,77.30
2018-09-30T06:36:09.757Z,74.50
2018-09-30T06:38:38.219Z,71.30
2018-09-30T06:41:06.977Z,67.70
2018-09-30T06:43:35.428Z,67.00
2018-09-30T06:46:03.889Z,66.60
2018-09-30T06:48:32.349Z,66.90
2018-09-30T06:51:00.857Z,66.80
2018-09-30T06:53:29.279Z,66.60
2018-09-30T06:55:57.742Z,67.50
2018-09-30T06:58:26.201Z,67.00
2018-09-30T07:00:54.625Z,67.20
2018-09-30T07:03:23.120Z,67.70
2018-09-30T07:05:51.560Z,68.70
2018-09-30T07:08:20.018Z,69.90
2018-09-30T07:15:45.171Z,70.10
2018-09-30T07:20:41.804Z,70.10
2018-09-30T07:23:10.260Z,69.90
2018-09-30T07:25:38.719Z,69.20
2018-09-30T07:30:35.555Z,69.90
2018-09-30T07:35:32.234Z,71.90
2018-09-30T07:38:00.665Z,73.40
2018-09-30T07:40:29.110Z,74.20
2018-09-30T07:43:03.156Z,75.40
2018-09-30T07:45:31.665Z,76.50
2018-09-30T07:48:00.141Z,76.90
2018-09-30T07:50:28.603Z,77.70
2018-09-30T07:52:57.056Z,77.70
2018-09-30T07:55:25.528Z,77.60
2018-09-30T08:00:22.192Z,78.20
2018-09-30T08:02:50.764Z,77.70
2018-09-30T08:05:19.218Z,76.80
2018-09-30T08:07:47.646Z,75.80
2018-09-30T08:10:16.090Z,76.00
2018-09-30T08:12:44.529Z,75.80
2018-09-30T08:15:13.042Z,75.20
2018-09-30T08:17:41.465Z,75.10
2018-09-30T08:20:09.901Z,74.80
2018-09-30T08:22:38.350Z,75.30
2018-09-30T08:25:07.264Z,75.60
2018-09-30T08:27:35.693Z,75.30
2018-09-30T08:30:04.247Z,75.40
2018-09-30T08:32:32.684Z,74.30
2018-09-30T08:35:01.193Z,74.70
2018-09-30T08:37:34.995Z,73.90
2018-09-30T08:40:03.544Z,72.90
2018-09-30T08:42:31.995Z,72.30
2018-09-30T08:45:00.443Z,71.00
2018-09-30T08:47:29.034Z,68.40
2018-09-30T08:49:57.339Z,66.80
2018-09-30T08:52:26.149Z,65.30
2018-09-30T08:54:54.621Z,64.20
2018-09-30T08:57:23.089Z,65.20
2018-09-30T08:59:51.553Z,64.60
2018-09-30T09:02:20.017Z,65.10
2018-09-30T09:04:48.466Z,64.90
2018-09-30T09:07:16.885Z,64.50
2018-09-30T09:14:41.685Z,63.20
2018-09-30T09:19:38.256Z,62.40
2018-09-30T09:22:06.778Z,62.50
2018-09-30T09:24:35.445Z,61.80
2018-09-30T09:27:03.941Z,60.60
2018-09-30T09:29:32.396Z,58.50
2018-09-30T09:32:00.981Z,60.00
2018-09-30T09:34:29.433Z,59.00
2018-09-30T09:36:58.002Z,59.20
2018-09-30T09:39:26.464Z,56.50
2018-09-30T09:41:55.145Z,55.80
2018-09-30T09:44:23.617Z,55.10
2018-09-30T09:46:52.138Z,54.00
2018-09-30T09:49:20.609Z,53.30
2018-09-30T09:51:49.077Z,53.80
2018-09-30T09:54:17.672Z,52.20
2018-09-30T09:56:46.198Z,51.50
2018-09-30T09:59:14.780Z,51.20
2018-09-30T10:01:43.257Z,49.90
2018-09-30T10:04:11.712Z,49.50
2018-09-30T10:06:40.160Z,50.80
2018-09-30T10:09:08.626Z,50.20
2018-09-30T10:11:37.109Z,50.10
2018-09-30T10:14:05.568Z,50.20
2018-09-30T10:19:02.284Z,53.00
2018-09-30T10:21:30.733Z,53.30
2018-09-30T10:23:59.179Z,53.60
2018-09-30T10:26:27.618Z,54.00
2018-09-30T10:28:56.080Z,54.40
2018-09-30T10:31:24.560Z,54.80
2018-09-30T10:33:53.079Z,55.00
2018-09-30T10:36:21.542Z,55.10
2018-09-30T10:38:50.022Z,54.80
2018-09-30T10:41:18.493Z,54.00
2018-09-30T10:43:47.338Z,52.30
2018-09-30T10:46:15.785Z,54.20
2018-09-30T10:48:44.447Z,54.30
2018-09-30T10:51:12.870Z,56.20
2018-09-30T10:53:47.001Z,59.50
2018-09-30T10:56:15.442Z,62.30
2018-09-30T10:58:43.892Z,64.60
2018-09-30T11:01:12.325Z,64.90
2018-09-30T11:03:40.768Z,65.30
2018-09-30T11:06:09.187Z,67.40
2018-09-30T11:08:38.108Z,68.90
2018-09-30T11:11:06.524Z,70.10
2018-09-30T11:13:34.973Z,70.20
2018-09-30T11:16:03.454Z,70.00
2018-09-30T11:18:31.903Z,70.10
2018-09-30T11:25:56.661Z,71.50
2018-09-30T11:28:25.090Z,71.90
2018-09-30T11:30:53.519Z,71.80
2018-09-30T11:35:50.092Z,71.90
2018-09-30T11:40:46.624Z,73.40
2018-09-30T11:43:15.073Z,73.20
2018-09-30T11:45:43.497Z,73.50
2018-09-30T11:48:11.936Z,73.40
2018-09-30T11:50:40.346Z,73.70
2018-09-30T11:55:37.073Z,74.00
2018-09-30T11:58:05.553Z,73.80
2018-09-30T12:00:33.954Z,73.80
2018-09-30T12:03:02.417Z,74.00
2018-09-30T12:05:30.872Z,73.90
2018-09-30T12:07:59.352Z,74.30
2018-09-30T12:10:27.789Z,74.60
2018-09-30T12:12:56.338Z,73.50
2018-09-30T12:15:24.773Z,73.30
2018-09-30T12:17:53.196Z,73.20
2018-09-30T12:20:21.620Z,73.00
2018-09-30T12:22:50.067Z,73.20
2018-09-30T12:25:18.505Z,73.30
2018-09-30T12:27:46.955Z,73.10
2018-09-30T12:30:15.373Z,73.80
2018-09-30T12:32:43.812Z,74.60
2018-09-30T12:35:12.237Z,74.30
2018-09-30T12:37:40.659Z,74.50
2018-09-30T12:40:09.125Z,74.70
2018-09-30T12:42:37.532Z,74.60
2018-09-30T12:45:06.032Z,74.70
2018-09-30T12:47:34.465Z,75.10
2018-09-30T12:50:02.938Z,74.90
2018-09-30T12:52:31.368Z,75.30
2018-09-30T12:54:59.808Z,74.90
2018-09-30T12:57:28.229Z,75.20
2018-09-30T12:59:56.689Z,74.80
2018-09-30T13:02:25.113Z,75.10
2018-09-30T13:04:53.577Z,75.20
2018-09-30T13:07:22.009Z,75.20
2018-09-30T13:12:18.609Z,75.60
2018-09-30T13:14:47.093Z,75.50
2018-09-30T13:17:15.537Z,74.70
2018-09-30T13:19:43.981Z,74.90
2018-09-30T13:22:12.425Z,74.70
2018-09-30T13:24:40.860Z,74.70
2018-09-30T13:32:05.593Z,74.80
2018-09-30T13:34:34.041Z,74.90
2018-09-30T13:37:02.448Z,75.10
2018-09-30T13:39:30.897Z,75.50
2018-09-30T13:41:59.323Z,75.30
2018-09-30T13:44:27.798Z,75.40
2018-09-30T13:46:56.206Z,75.80
2018-09-30T13:49:24.836Z,75.70
2018-09-30T13:51:53.274Z,76.00
2018-09-30T13:54:21.789Z,76.00
2018-09-30T13:56:50.201Z,75.60
2018-09-30T13:59:18.649Z,75.80
2018-09-30T14:01:47.303Z,75.30
2018-09-30T14:06:44.061Z,75.70
2018-09-30T14:09:12.538Z,75.60
2018-09-30T14:11:40.964Z,75.60
2018-09-30T14:14:09.525Z,75.90
2018-09-30T14:16:38.092Z,76.50
2018-09-30T14:19:06.584Z,76.20
2018-09-30T14:21:35.049Z,76.10
2018-09-30T14:26:31.570Z,75.70
2018-09-30T14:28:59.981Z,75.70
2018-09-30T14:31:28.432Z,75.20
2018-09-30T14:33:56.858Z,75.20
2018-09-30T14:36:25.288Z,75.20
2018-09-30T14:38:53.702Z,75.10
2018-09-30T14:43:50.264Z,75.30
2018-09-30T14:46:18.708Z,75.50
2018-09-30T14:48:47.149Z,75.20
2018-09-30T14:51:15.649Z,74.90
2018-09-30T14:53:44.079Z,74.90
2018-09-30T14:56:12.532Z,74.80
2018-09-30T14:58:40.942Z,75.30
2018-09-30T15:01:09.425Z,74.80
2018-09-30T15:03:37.836Z,74.90
2018-09-30T15:06:06.306Z,75.30
2018-09-30T15:08:34.836Z,75.50
2018-09-30T15:11:03.318Z,76.00
2018-09-30T15:13:32.105Z,76.00
2018-09-30T15:16:00.585Z,76.60
2018-09-30T15:18:28.996Z,76.60
2018-09-30T15:20:57.445Z,76.80
2018-09-30T15:23:25.869Z,76.70
2018-09-30T15:25:54.349Z,76.80
2018-09-30T15:28:22.765Z,76.50
2018-09-30T15:30:51.237Z,76.30
2018-09-30T15:33:19.679Z,76.70
2018-09-30T15:35:48.244Z,76.80
2018-09-30T15:38:16.659Z,76.90
2018-09-30T15:40:45.434Z,77.10
2018-09-30T15:43:13.866Z,77.20
2018-09-30T15:45:42.313Z,77.20
2018-09-30T15:48:10.750Z,77.30
2018-09-30T15:50:39.192Z,77.50
2018-09-30T15:53:07.649Z,77.50
2018-09-30T15:55:36.152Z,77.60
2018-09-30T15:58:04.584Z,77.70
2018-09-30T16:00:33.054Z,78.10
2018-09-30T16:03:01.505Z,78.20
2018-09-30T16:05:29.938Z,78.20
2018-09-30T16:07:58.419Z,78.30
2018-09-30T16:10:27.057Z,78.40
2018-09-30T16:12:55.529Z,78.60
2018-09-30T16:15:24.139Z,78.50
2018-09-30T16:17:52.588Z,78.50
2018-09-30T16:20:21.069Z,78.70
2018-09-30T16:22:49.608Z,79.10
2018-09-30T16:25:18.067Z,79.40
2018-09-30T16:27:46.729Z,79.50
2018-09-30T16:30:15.101Z,79.60
2018-09-30T16:32:43.559Z,79.80
2018-09-30T16:35:11.983Z,79.90
2018-09-30T16:37:40.449Z,80.10
2018-09-30T16:40:08.886Z,80.10
2018-09-30T16:42:37.313Z,80.40
2018-09-30T16:47:33.885Z,80.90
2018-09-30T16:50:02.298Z,80.90
2018-09-30T16:52:30.779Z,81.00
2018-09-30T16:54:59.193Z,81.10
2018-09-30T16:57:27.742Z,81.30
2018-09-30T16:59:56.257Z,81.40
2018-09-30T17:02:24.672Z,81.50
2018-09-30T17:04:53.228Z,81.70
2018-09-30T17:07:21.713Z,81.90
2018-09-30T17:12:18.321Z,82.30
2018-09-30T17:14:46.748Z,82.60
2018-09-30T17:17:15.220Z,82.80
2018-09-30T17:19:43.641Z,83.20
2018-09-30T17:22:12.085Z,83.50
2018-09-30T17:24:40.508Z,83.80
2018-09-30T17:27:08.960Z,84.00
2018-09-30T17:29:37.390Z,84.10
2018-09-30T17:32:05.837Z,84.40
2018-09-30T17:34:34.355Z,84.60
2018-09-30T17:39:31.115Z,85.10
2018-09-30T17:41:59.628Z,85.20
2018-09-30T17:44:28.042Z,85.40
2018-09-30T17:46:56.668Z,85.60
2018-09-30T17:49:25.111Z,85.70
2018-09-30T17:51:53.576Z,85.90
2018-09-30T17:56:50.244Z,86.10
2018-09-30T17:59:18.690Z,86.20
2018-09-30T18:01:47.138Z,86.30
2018-09-30T18:04:15.585Z,86.50
2018-09-30T18:06:44.058Z,86.70
2018-09-30T18:09:12.493Z,86.80
2018-09-30T18:14:09.200Z,87.10
2018-09-30T18:16:37.986Z,87.10
2018-09-30T18:19:06.504Z,87.20
2018-09-30T18:21:34.922Z,87.40
2018-09-30T18:24:03.640Z,87.50
2018-09-30T18:26:32.094Z,87.60
2018-09-30T18:29:00.685Z,87.70
2018-09-30T18:31:29.266Z,87.70
2018-09-30T18:33:57.744Z,87.80
2018-09-30T18:36:26.165Z,87.70
2018-09-30T18:38:54.633Z,87.80
2018-09-30T18:41:23.087Z,88.00
2018-09-30T18:43:51.567Z,88.00
2018-09-30T18:46:20.055Z,88.20
2018-09-30T18:48:48.490Z,88.10
2018-09-30T18:51:16.967Z,88.20
2018-09-30T18:53:45.421Z,88.30
2018-09-30T18:56:14.000Z,88.50
2018-09-30T18:58:42.449Z,88.50
2018-09-30T19:01:10.870Z,88.50
2018-09-30T19:03:39.324Z,88.60
2018-09-30T19:06:08.080Z,88.70
2018-09-30T19:13:32.868Z,88.70
2018-09-30T19:16:01.374Z,88.80
2018-09-30T19:18:29.773Z,88.90
2018-09-30T19:25:54.755Z,89.10
2018-09-30T19:28:23.367Z,89.00
2018-09-30T19:33:19.984Z,89.00
2018-09-30T19:35:48.409Z,89.00
2018-09-30T19:38:16.889Z,89.00
2018-09-30T19:40:45.313Z,89.00
2018-09-30T19:43:14.640Z,89.10
2018-09-30T19:45:43.133Z,89.10
2018-09-30T19:48:11.635Z,89.20
2018-09-30T19:50:40.085Z,89.20
2018-09-30T19:53:08.540Z,89.10
2018-09-30T19:55:37.127Z,89.10
2018-09-30T20:00:33.705Z,89.10
2018-09-30T20:05:30.300Z,89.40
2018-09-30T20:07:58.716Z,89.20
2018-09-30T20:10:27.165Z,89.70
2018-09-30T20:12:55.569Z,89.90
2018-09-30T20:15:24.096Z,89.80
2018-09-30T20:17:52.566Z,89.80
2018-09-30T20:20:21.013Z,89.80
2018-09-30T20:25:17.600Z,90.00
2018-09-30T20:27:46.015Z,90.00
2018-09-30T20:30:14.546Z,90.00
2018-09-30T20:32:42.940Z,90.00
2018-09-30T20:35:11.367Z,89.90
2018-09-30T20:37:39.813Z,89.80
2018-09-30T20:40:08.352Z,89.80
2018-09-30T20:45:04.968Z,89.70
2018-09-30T20:47:33.415Z,89.80
2018-09-30T20:50:01.860Z,89.80
2018-09-30T20:52:30.279Z,89.90
2018-09-30T20:57:26.997Z,89.80
2018-09-30T20:59:55.453Z,89.90
2018-09-30T21:02:23.904Z,89.90
2018-09-30T21:04:52.412Z,89.80
2018-09-30T21:07:20.821Z,89.90
2018-09-30T21:09:49.237Z,90.00
2018-09-30T21:12:17.633Z,90.10
2018-09-30T21:17:14.339Z,90.20
2018-09-30T21:19:42.760Z,90.30
2018-09-30T21:22:11.239Z,90.10
2018-09-30T21:24:39.693Z,90.10
2018-09-30T21:27:08.123Z,90.10
2018-09-30T21:29:36.657Z,90.10
2018-09-30T21:32:05.168Z,89.90
2018-09-30T21:39:29.884Z,90.10
2018-09-30T21:41:58.340Z,90.10
2018-09-30T21:46:54.889Z,89.80
2018-09-30T21:49:23.293Z,90.00
2018-09-30T21:51:51.734Z,90.00
2018-09-30T21:56:48.301Z,90.10
2018-09-30T21:59:16.743Z,90.00
2018-09-30T22:01:45.268Z,90.00
2018-09-30T22:04:13.653Z,90.00
2018-09-30T22:06:42.126Z,90.10
2018-09-30T22:09:10.566Z,90.20
2018-09-30T22:11:39.008Z,90.20
2018-09-30T22:14:07.576Z,90.20
2018-09-30T22:16:36.076Z,90.20
2018-09-30T22:19:04.548Z,90.20
2018-09-30T22:21:33.050Z,90.10
2018-09-30T22:24:01.475Z,90.10
2018-09-30T22:26:29.957Z,90.20
2018-09-30T22:28:58.368Z,90.40
2018-09-30T22:31:26.836Z,90.60
2018-09-30T22:33:55.261Z,90.30
2018-09-30T22:36:23.733Z,90.10
2018-09-30T22:38:52.145Z,90.10
2018-09-30T22:46:17.128Z,89.90
2018-09-30T22:48:45.556Z,89.70
2018-09-30T22:51:14.008Z,89.90
2018-09-30T22:53:42.456Z,90.00
2018-09-30T22:56:10.934Z,90.10
2018-09-30T22:58:39.349Z,90.00
2018-09-30T23:01:07.820Z,90.30
2018-09-30T23:03:36.238Z,90.20
2018-09-30T23:06:04.684Z,90.00
2018-09-30T23:11:01.217Z,90.10
2018-09-30T23:15:57.812Z,90.10
2018-09-30T23:18:26.277Z,90.20
2018-09-30T23:20:54.687Z,90.30
2018-09-30T23:23:23.113Z,90.40
2018-09-30T23:25:51.521Z,90.50
2018-09-30T23:28:19.972Z,90.40
2018-09-30T23:30:48.408Z,90.30
2018-09-30T23:33:16.853Z,90.40
2018-09-30T23:35:45.272Z,90.30
2018-09-30T23:38:13.737Z,90.40
2018-09-30T23:40:42.130Z,90.20
2018-09-30T23:43:10.585Z,90.20
2018-09-30T23:45:38.992Z,90.30
2018-09-30T23:48:07.441Z,90.30
2018-09-30T23:50:35.853Z,90.20
2018-09-30T23:53:04.352Z,90.50
2018-09-30T23:55:32.788Z,90.50
2018-09-30T23:58:11.553Z,90.60
